sensor_id;sensor_type;location;lat;lon;timestamp;pressure;altitude;pressure_sealevel;temperature;humidity
69689;BME280;56932;38.402;-96.176;2023-02-11T00:00:57;98946.12;;;18.71;18.72
69689;BME280;56932;38.402;-96.176;2023-02-11T00:03:23;98942.08;;;19.33;18.94
69689;BME280;56932;38.402;-96.176;2023-02-11T00:05:56;98940.44;;;19.07;19.31
69689;BME280;56932;38.402;-96.176;2023-02-11T00:08:13;98934.07;;;19.30;20.22
69689;BME280;56932;38.402;-96.176;2023-02-11T00:10:39;98933.16;;;19.43;20.02
69689;BME280;56932;38.402;-96.176;2023-02-11T00:13:04;98937.86;;;18.95;20.27
69689;BME280;56932;38.402;-96.176;2023-02-11T00:15:29;98939.25;;;18.52;20.29
69689;BME280;56932;38.402;-96.176;2023-02-11T00:17:55;98941.69;;;19.35;19.84
69689;BME280;56932;38.402;-96.176;2023-02-11T00:20:21;98940.92;;;19.29;20.01
69689;BME280;56932;38.402;-96.176;2023-02-11T00:22:46;98941.93;;;19.27;19.84
69689;BME280;56932;38.402;-96.176;2023-02-11T00:25:12;98940.91;;;19.40;19.62
69689;BME280;56932;38.402;-96.176;2023-02-11T00:27:37;98943.87;;;18.82;19.89
69689;BME280;56932;38.402;-96.176;2023-02-11T00:30:03;98942.93;;;19.43;19.60
69689;BME280;56932;38.402;-96.176;2023-02-11T00:32:28;98942.33;;;18.62;19.33
69689;BME280;56932;38.402;-96.176;2023-02-11T00:34:54;98945.30;;;19.42;19.00
69689;BME280;56932;38.402;-96.176;2023-02-11T00:37:19;98946.02;;;19.00;19.21
69689;BME280;56932;38.402;-96.176;2023-02-11T00:39:45;98948.45;;;19.21;18.75
69689;BME280;56932;38.402;-96.176;2023-02-11T00:42:13;98948.00;;;19.93;18.37
69689;BME280;56932;38.402;-96.176;2023-02-11T00:44:36;98951.52;;;20.38;18.03
69689;BME280;56932;38.402;-96.176;2023-02-11T00:47:01;98952.84;;;19.77;18.20
69689;BME280;56932;38.402;-96.176;2023-02-11T00:49:27;98956.68;;;19.19;18.58
69689;BME280;56932;38.402;-96.176;2023-02-11T00:51:52;98954.97;;;19.95;18.19
69689;BME280;56932;38.402;-96.176;2023-02-11T00:54:18;98955.91;;;19.72;18.29
69689;BME280;56932;38.402;-96.176;2023-02-11T00:56:44;98963.45;;;20.88;17.52
69689;BME280;56932;38.402;-96.176;2023-02-11T00:59:09;98958.91;;;20.39;17.77
69689;BME280;56932;38.402;-96.176;2023-02-11T01:01:34;98961.26;;;19.52;18.35
69689;BME280;56932;38.402;-96.176;2023-02-11T01:04:00;98962.39;;;20.16;17.75
69689;BME280;56932;38.402;-96.176;2023-02-11T01:06:26;98963.01;;;20.51;17.37
69689;BME280;56932;38.402;-96.176;2023-02-11T01:08:51;98963.64;;;20.49;17.50
69689;BME280;56932;38.402;-96.176;2023-02-11T01:11:18;98963.33;;;20.38;17.57
69689;BME280;56932;38.402;-96.176;2023-02-11T01:13:43;98965.58;;;20.58;17.43
69689;BME280;56932;38.402;-96.176;2023-02-11T01:16:09;98962.50;;;20.48;17.49
69689;BME280;56932;38.402;-96.176;2023-02-11T01:18:33;98965.53;;;20.76;17.18
69689;BME280;56932;38.402;-96.176;2023-02-11T01:20:59;98966.86;;;20.06;17.78
69689;BME280;56932;38.402;-96.176;2023-02-11T01:23:25;98970.15;;;20.55;17.29
69689;BME280;56932;38.402;-96.176;2023-02-11T01:25:50;98972.01;;;20.73;17.08
69689;BME280;56932;38.402;-96.176;2023-02-11T01:28:17;98970.75;;;21.40;16.93
69689;BME280;56932;38.402;-96.176;2023-02-11T01:30:41;98969.66;;;20.59;17.25
69689;BME280;56932;38.402;-96.176;2023-02-11T01:33:06;98973.02;;;20.96;17.00
69689;BME280;56932;38.402;-96.176;2023-02-11T01:35:32;98970.56;;;21.11;16.73
69689;BME280;56932;38.402;-96.176;2023-02-11T01:37:58;98967.01;;;20.15;17.41
69689;BME280;56932;38.402;-96.176;2023-02-11T01:40:24;98966.31;;;20.77;17.07
69689;BME280;56932;38.402;-96.176;2023-02-11T01:42:49;98961.57;;;20.83;16.89
69689;BME280;56932;38.402;-96.176;2023-02-11T01:47:40;98956.48;;;20.78;17.08
69689;BME280;56932;38.402;-96.176;2023-02-11T01:50:06;98957.93;;;21.16;17.06
69689;BME280;56932;38.402;-96.176;2023-02-11T01:52:34;98959.82;;;20.32;17.44
69689;BME280;56932;38.402;-96.176;2023-02-11T01:54:58;98962.98;;;20.67;17.72
69689;BME280;56932;38.402;-96.176;2023-02-11T01:57:26;98965.13;;;20.85;17.69
69689;BME280;56932;38.402;-96.176;2023-02-11T01:59:57;98970.34;;;20.55;18.19
69689;BME280;56932;38.402;-96.176;2023-02-11T02:02:18;98970.67;;;20.23;19.07
69689;BME280;56932;38.402;-96.176;2023-02-11T02:04:43;98975.85;;;20.36;19.06
69689;BME280;56932;38.402;-96.176;2023-02-11T02:07:07;98974.54;;;20.59;19.13
69689;BME280;56932;38.402;-96.176;2023-02-11T02:09:35;98976.81;;;20.30;18.85
69689;BME280;56932;38.402;-96.176;2023-02-11T02:11:55;98976.57;;;20.78;19.32
69689;BME280;56932;38.402;-96.176;2023-02-11T02:14:20;98979.88;;;21.20;18.84
69689;BME280;56932;38.402;-96.176;2023-02-11T02:16:47;98983.91;;;20.45;19.37
69689;BME280;56932;38.402;-96.176;2023-02-11T02:19:29;98985.20;;;20.15;19.70
69689;BME280;56932;38.402;-96.176;2023-02-11T02:26:37;98987.22;;;20.60;19.09
69689;BME280;56932;38.402;-96.176;2023-02-11T02:31:31;98990.19;;;20.45;19.27
69689;BME280;56932;38.402;-96.176;2023-02-11T02:33:51;98991.82;;;20.65;19.18
69689;BME280;56932;38.402;-96.176;2023-02-11T02:36:16;98992.45;;;20.68;18.92
69689;BME280;56932;38.402;-96.176;2023-02-11T02:38:39;98992.40;;;20.76;18.79
69689;BME280;56932;38.402;-96.176;2023-02-11T02:41:07;98991.46;;;20.55;19.02
69689;BME280;56932;38.402;-96.176;2023-02-11T02:43:28;98991.09;;;20.20;19.07
69689;BME280;56932;38.402;-96.176;2023-02-11T02:45:53;98988.64;;;20.80;18.71
69689;BME280;56932;38.402;-96.176;2023-02-11T02:48:25;98987.36;;;21.09;18.65
69689;BME280;56932;38.402;-96.176;2023-02-11T02:50:44;98984.92;;;20.63;18.74
69689;BME280;56932;38.402;-96.176;2023-02-11T02:53:17;98985.91;;;20.85;18.68
69689;BME280;56932;38.402;-96.176;2023-02-11T02:55:44;98986.37;;;20.77;18.50
69689;BME280;56932;38.402;-96.176;2023-02-11T02:58:10;98980.37;;;19.96;19.24
69689;BME280;56932;38.402;-96.176;2023-02-11T03:00:29;98981.10;;;20.08;19.23
69689;BME280;56932;38.402;-96.176;2023-02-11T03:03:03;98984.39;;;20.71;18.78
69689;BME280;56932;38.402;-96.176;2023-02-11T03:05:20;98983.13;;;20.38;18.72
69689;BME280;56932;38.402;-96.176;2023-02-11T03:07:47;98982.38;;;20.63;18.65
69689;BME280;56932;38.402;-96.176;2023-02-11T03:10:11;98982.11;;;20.47;18.71
69689;BME280;56932;38.402;-96.176;2023-02-11T03:12:34;98979.56;;;20.26;18.56
69689;BME280;56932;38.402;-96.176;2023-02-11T03:15:00;98977.83;;;19.85;18.90
69689;BME280;56932;38.402;-96.176;2023-02-11T03:17:26;98979.03;;;20.16;18.51
69689;BME280;56932;38.402;-96.176;2023-02-11T03:19:51;98979.61;;;20.16;18.65
69689;BME280;56932;38.402;-96.176;2023-02-11T03:22:19;98981.93;;;19.25;19.04
69689;BME280;56932;38.402;-96.176;2023-02-11T03:24:41;98980.03;;;19.93;18.63
69689;BME280;56932;38.402;-96.176;2023-02-11T03:27:11;98984.71;;;19.74;18.73
69689;BME280;56932;38.402;-96.176;2023-02-11T03:29:35;98987.80;;;19.53;18.84
69689;BME280;56932;38.402;-96.176;2023-02-11T03:32:03;98989.12;;;19.80;18.64
69689;BME280;56932;38.402;-96.176;2023-02-11T03:34:28;98988.21;;;20.03;18.35
69689;BME280;56932;38.402;-96.176;2023-02-11T03:36:51;98985.28;;;19.83;18.26
69689;BME280;56932;38.402;-96.176;2023-02-11T03:39:19;98984.80;;;20.19;18.14
69689;BME280;56932;38.402;-96.176;2023-02-11T03:41:41;98984.21;;;20.14;18.11
69689;BME280;56932;38.402;-96.176;2023-02-11T03:44:05;98987.17;;;20.37;17.90
69689;BME280;56932;38.402;-96.176;2023-02-11T03:46:34;98986.67;;;19.73;17.92
69689;BME280;56932;38.402;-96.176;2023-02-11T03:49:01;98991.52;;;19.49;18.19
69689;BME280;56932;38.402;-96.176;2023-02-11T03:51:24;98991.62;;;20.26;17.81
69689;BME280;56932;38.402;-96.176;2023-02-11T03:53:49;98987.99;;;19.97;17.77
69689;BME280;56932;38.402;-96.176;2023-02-11T03:56:16;98984.48;;;19.97;17.90
69689;BME280;56932;38.402;-96.176;2023-02-11T03:58:39;98984.61;;;20.15;17.73
69689;BME280;56932;38.402;-96.176;2023-02-11T04:01:05;98985.02;;;19.95;17.82
69689;BME280;56932;38.402;-96.176;2023-02-11T04:03:30;98987.05;;;19.16;17.94
69689;BME280;56932;38.402;-96.176;2023-02-11T04:05:55;98987.42;;;19.89;17.76
69689;BME280;56932;38.402;-96.176;2023-02-11T04:08:21;98984.97;;;20.01;17.63
69689;BME280;56932;38.402;-96.176;2023-02-11T04:10:46;98987.12;;;19.63;17.84
69689;BME280;56932;38.402;-96.176;2023-02-11T04:13:12;98982.03;;;20.14;17.60
69689;BME280;56932;38.402;-96.176;2023-02-11T04:15:37;98986.08;;;19.81;17.63
69689;BME280;56932;38.402;-96.176;2023-02-11T04:18:03;98982.81;;;20.47;17.45
69689;BME280;56932;38.402;-96.176;2023-02-11T04:20:29;98987.09;;;18.42;18.18
69689;BME280;56932;38.402;-96.176;2023-02-11T04:22:54;98987.48;;;19.67;17.63
69689;BME280;56932;38.402;-96.176;2023-02-11T04:25:20;98987.02;;;19.94;17.71
69689;BME280;56932;38.402;-96.176;2023-02-11T04:27:45;98985.02;;;19.07;17.94
69689;BME280;56932;38.402;-96.176;2023-02-11T04:30:12;98986.06;;;19.95;17.49
69689;BME280;56932;38.402;-96.176;2023-02-11T04:32:36;98981.62;;;19.41;17.62
69689;BME280;56932;38.402;-96.176;2023-02-11T04:35:02;98975.55;;;19.86;17.48
69689;BME280;56932;38.402;-96.176;2023-02-11T04:37:28;98976.42;;;19.42;17.36
69689;BME280;56932;38.402;-96.176;2023-02-11T04:39:53;98975.55;;;19.33;17.53
69689;BME280;56932;38.402;-96.176;2023-02-11T04:42:19;98976.73;;;19.67;17.31
69689;BME280;56932;38.402;-96.176;2023-02-11T04:44:44;98970.72;;;20.03;17.31
69689;BME280;56932;38.402;-96.176;2023-02-11T04:47:10;98968.67;;;19.18;17.68
69689;BME280;56932;38.402;-96.176;2023-02-11T04:49:36;98967.00;;;19.07;17.57
69689;BME280;56932;38.402;-96.176;2023-02-11T04:52:01;98964.27;;;19.39;17.52
69689;BME280;56932;38.402;-96.176;2023-02-11T04:54:27;98962.84;;;19.32;17.41
69689;BME280;56932;38.402;-96.176;2023-02-11T04:56:52;98961.49;;;19.03;17.56
69689;BME280;56932;38.402;-96.176;2023-02-11T04:59:18;98960.43;;;19.66;17.43
69689;BME280;56932;38.402;-96.176;2023-02-11T05:01:43;98960.95;;;19.39;17.43
69689;BME280;56932;38.402;-96.176;2023-02-11T05:04:09;98954.63;;;19.73;17.33
69689;BME280;56932;38.402;-96.176;2023-02-11T05:06:34;98953.75;;;19.10;17.40
69689;BME280;56932;38.402;-96.176;2023-02-11T05:09:00;98952.31;;;18.97;17.48
69689;BME280;56932;38.402;-96.176;2023-02-11T05:11:26;98952.02;;;19.13;17.33
69689;BME280;56932;38.402;-96.176;2023-02-11T05:13:51;98952.11;;;19.33;17.30
69689;BME280;56932;38.402;-96.176;2023-02-11T05:16:17;98947.39;;;19.21;17.47
69689;BME280;56932;38.402;-96.176;2023-02-11T05:18:43;98949.62;;;19.11;17.26
69689;BME280;56932;38.402;-96.176;2023-02-11T05:21:10;98952.67;;;19.61;17.06
69689;BME280;56932;38.402;-96.176;2023-02-11T05:23:34;98953.17;;;19.37;17.35
69689;BME280;56932;38.402;-96.176;2023-02-11T05:25:59;98952.90;;;18.43;17.69
69689;BME280;56932;38.402;-96.176;2023-02-11T05:28:25;98950.95;;;18.76;17.48
69689;BME280;56932;38.402;-96.176;2023-02-11T05:30:50;98955.58;;;19.44;17.33
69689;BME280;56932;38.402;-96.176;2023-02-11T05:33:16;98960.71;;;17.76;18.55
69689;BME280;56932;38.402;-96.176;2023-02-11T05:35:41;98959.48;;;17.29;18.94
69689;BME280;56932;38.402;-96.176;2023-02-11T05:38:07;98963.10;;;17.22;19.39
69689;BME280;56932;38.402;-96.176;2023-02-11T05:40:32;98962.61;;;16.76;19.57
69689;BME280;56932;38.402;-96.176;2023-02-11T05:42:58;98964.69;;;17.64;19.35
69689;BME280;56932;38.402;-96.176;2023-02-11T05:45:24;98963.70;;;17.49;19.62
69689;BME280;56932;38.402;-96.176;2023-02-11T05:47:49;98967.53;;;17.41;19.34
69689;BME280;56932;38.402;-96.176;2023-02-11T05:50:15;98967.93;;;17.61;19.23
69689;BME280;56932;38.402;-96.176;2023-02-11T05:52:40;98967.20;;;17.43;19.38
69689;BME280;56932;38.402;-96.176;2023-02-11T05:55:06;98965.01;;;17.84;19.10
69689;BME280;56932;38.402;-96.176;2023-02-11T05:57:32;98964.61;;;17.71;19.09
69689;BME280;56932;38.402;-96.176;2023-02-11T05:59:57;98964.82;;;18.25;18.90
69689;BME280;56932;38.402;-96.176;2023-02-11T06:02:23;98966.34;;;18.50;18.59
69689;BME280;56932;38.402;-96.176;2023-02-11T06:04:48;98968.82;;;17.78;18.45
69689;BME280;56932;38.402;-96.176;2023-02-11T06:07:13;98969.00;;;18.53;18.16
69689;BME280;56932;38.402;-96.176;2023-02-11T06:09:39;98971.66;;;18.95;18.20
69689;BME280;56932;38.402;-96.176;2023-02-11T06:12:05;98976.96;;;18.83;18.32
69689;BME280;56932;38.402;-96.176;2023-02-11T06:14:32;98976.42;;;18.64;18.22
69689;BME280;56932;38.402;-96.176;2023-02-11T06:16:56;98982.01;;;18.58;18.58
69689;BME280;56932;38.402;-96.176;2023-02-11T06:19:21;98985.16;;;18.96;18.55
69689;BME280;56932;38.402;-96.176;2023-02-11T06:21:47;98988.66;;;18.37;18.81
69689;BME280;56932;38.402;-96.176;2023-02-11T06:24:12;98993.11;;;18.76;18.73
69689;BME280;56932;38.402;-96.176;2023-02-11T06:26:38;98995.88;;;18.46;18.62
69689;BME280;56932;38.402;-96.176;2023-02-11T06:29:04;98996.38;;;18.60;18.69
69689;BME280;56932;38.402;-96.176;2023-02-11T06:31:29;99001.01;;;18.07;18.78
69689;BME280;56932;38.402;-96.176;2023-02-11T06:33:54;99000.85;;;18.41;18.88
69689;BME280;56932;38.402;-96.176;2023-02-11T06:36:21;98997.06;;;18.88;18.59
69689;BME280;56932;38.402;-96.176;2023-02-11T06:38:46;98997.88;;;18.47;18.65
69689;BME280;56932;38.402;-96.176;2023-02-11T06:41:12;98997.01;;;18.43;18.87
69689;BME280;56932;38.402;-96.176;2023-02-11T06:43:37;98992.65;;;18.14;18.91
69689;BME280;56932;38.402;-96.176;2023-02-11T06:46:02;98986.32;;;18.29;18.95
69689;BME280;56932;38.402;-96.176;2023-02-11T06:48:28;98988.43;;;17.87;18.94
69689;BME280;56932;38.402;-96.176;2023-02-11T06:50:53;98993.63;;;18.55;18.60
69689;BME280;56932;38.402;-96.176;2023-02-11T06:53:19;98984.25;;;19.16;18.36
69689;BME280;56932;38.402;-96.176;2023-02-11T06:55:44;98983.54;;;18.73;18.61
69689;BME280;56932;38.402;-96.176;2023-02-11T06:58:10;98984.11;;;18.48;18.78
69689;BME280;56932;38.402;-96.176;2023-02-11T07:00:36;98981.87;;;18.44;18.49
69689;BME280;56932;38.402;-96.176;2023-02-11T07:03:01;98979.80;;;18.06;19.05
69689;BME280;56932;38.402;-96.176;2023-02-11T07:05:27;98974.17;;;18.67;18.30
69689;BME280;56932;38.402;-96.176;2023-02-11T07:07:52;98969.64;;;18.39;18.14
69689;BME280;56932;38.402;-96.176;2023-02-11T07:10:18;98967.58;;;18.73;18.15
69689;BME280;56932;38.402;-96.176;2023-02-11T07:12:43;98958.45;;;18.33;18.43
69689;BME280;56932;38.402;-96.176;2023-02-11T07:15:09;98955.73;;;20.10;17.56
69689;BME280;56932;38.402;-96.176;2023-02-11T07:17:35;98959.10;;;18.91;17.98
69689;BME280;56932;38.402;-96.176;2023-02-11T07:20:00;98958.02;;;19.92;17.34
69689;BME280;56932;38.402;-96.176;2023-02-11T07:22:26;98962.65;;;18.98;17.57
69689;BME280;56932;38.402;-96.176;2023-02-11T07:24:51;98961.12;;;19.42;17.58
69689;BME280;56932;38.402;-96.176;2023-02-11T07:27:16;98961.16;;;18.80;18.01
69689;BME280;56932;38.402;-96.176;2023-02-11T07:29:42;98953.01;;;20.16;17.02
69689;BME280;56932;38.402;-96.176;2023-02-11T07:32:08;98951.13;;;19.39;17.47
69689;BME280;56932;38.402;-96.176;2023-02-11T07:34:33;98950.95;;;18.35;17.95
69689;BME280;56932;38.402;-96.176;2023-02-11T07:36:59;98946.73;;;19.65;17.27
69689;BME280;56932;38.402;-96.176;2023-02-11T07:39:25;98948.32;;;19.87;16.93
69689;BME280;56932;38.402;-96.176;2023-02-11T07:41:49;98951.61;;;19.28;17.25
69689;BME280;56932;38.402;-96.176;2023-02-11T07:44:15;98949.13;;;20.47;16.67
69689;BME280;56932;38.402;-96.176;2023-02-11T07:46:41;98950.44;;;19.95;16.76
69689;BME280;56932;38.402;-96.176;2023-02-11T07:49:06;98947.49;;;19.73;17.01
69689;BME280;56932;38.402;-96.176;2023-02-11T07:51:32;98951.41;;;19.34;16.62
69689;BME280;56932;38.402;-96.176;2023-02-11T07:53:59;98947.05;;;20.41;16.53
69689;BME280;56932;38.402;-96.176;2023-02-11T07:56:23;98942.16;;;19.57;17.06
69689;BME280;56932;38.402;-96.176;2023-02-11T07:58:49;98942.99;;;20.42;16.50
69689;BME280;56932;38.402;-96.176;2023-02-11T08:01:15;98941.05;;;19.73;16.87
69689;BME280;56932;38.402;-96.176;2023-02-11T08:03:40;98944.54;;;20.05;16.49
69689;BME280;56932;38.402;-96.176;2023-02-11T08:06:06;98945.36;;;20.29;16.47
69689;BME280;56932;38.402;-96.176;2023-02-11T08:08:30;98946.45;;;18.85;16.90
69689;BME280;56932;38.402;-96.176;2023-02-11T08:10:55;98944.99;;;20.55;16.25
69689;BME280;56932;38.402;-96.176;2023-02-11T08:13:21;98940.09;;;19.18;17.06
69689;BME280;56932;38.402;-96.176;2023-02-11T08:15:46;98941.08;;;20.60;16.18
69689;BME280;56932;38.402;-96.176;2023-02-11T08:18:12;98941.41;;;20.00;16.34
69689;BME280;56932;38.402;-96.176;2023-02-11T08:20:37;98941.70;;;19.84;16.44
69689;BME280;56932;38.402;-96.176;2023-02-11T08:23:05;98939.52;;;19.85;16.59
69689;BME280;56932;38.402;-96.176;2023-02-11T08:25:29;98939.15;;;19.73;16.26
69689;BME280;56932;38.402;-96.176;2023-02-11T08:27:54;98935.67;;;20.70;15.98
69689;BME280;56932;38.402;-96.176;2023-02-11T08:30:20;98929.11;;;20.13;16.12
69689;BME280;56932;38.402;-96.176;2023-02-11T08:32:45;98925.05;;;20.14;16.23
69689;BME280;56932;38.402;-96.176;2023-02-11T08:35:11;98921.35;;;20.26;16.14
69689;BME280;56932;38.402;-96.176;2023-02-11T08:37:36;98919.61;;;19.84;16.22
69689;BME280;56932;38.402;-96.176;2023-02-11T08:40:02;98922.66;;;20.36;16.05
69689;BME280;56932;38.402;-96.176;2023-02-11T08:42:28;98917.82;;;19.61;16.31
69689;BME280;56932;38.402;-96.176;2023-02-11T08:44:53;98912.67;;;19.94;16.25
69689;BME280;56932;38.402;-96.176;2023-02-11T08:47:18;98908.01;;;19.51;16.64
69689;BME280;56932;38.402;-96.176;2023-02-11T08:49:44;98906.69;;;19.82;16.26
69689;BME280;56932;38.402;-96.176;2023-02-11T08:52:09;98904.64;;;19.70;16.29
69689;BME280;56932;38.402;-96.176;2023-02-11T08:54:36;98903.11;;;19.51;16.22
69689;BME280;56932;38.402;-96.176;2023-02-11T08:57:01;98898.52;;;19.37;16.45
69689;BME280;56932;38.402;-96.176;2023-02-11T08:59:27;98898.98;;;19.00;16.38
69689;BME280;56932;38.402;-96.176;2023-02-11T09:01:52;98894.64;;;19.72;16.18
69689;BME280;56932;38.402;-96.176;2023-02-11T09:04:17;98891.77;;;19.27;16.44
69689;BME280;56932;38.402;-96.176;2023-02-11T09:06:43;98890.59;;;19.63;16.19
69689;BME280;56932;38.402;-96.176;2023-02-11T09:09:11;98890.18;;;19.80;16.20
69689;BME280;56932;38.402;-96.176;2023-02-11T09:11:35;98889.75;;;19.45;16.26
69689;BME280;56932;38.402;-96.176;2023-02-11T09:14:00;98893.51;;;19.59;16.40
69689;BME280;56932;38.402;-96.176;2023-02-11T09:16:27;98896.02;;;19.43;16.20
69689;BME280;56932;38.402;-96.176;2023-02-11T09:18:51;98894.54;;;19.52;16.14
69689;BME280;56932;38.402;-96.176;2023-02-11T09:21:17;98887.91;;;19.38;16.18
69689;BME280;56932;38.402;-96.176;2023-02-11T09:23:42;98888.85;;;19.51;16.21
69689;BME280;56932;38.402;-96.176;2023-02-11T09:26:10;98889.95;;;19.67;15.95
69689;BME280;56932;38.402;-96.176;2023-02-11T09:28:33;98888.50;;;19.04;16.30
69689;BME280;56932;38.402;-96.176;2023-02-11T09:30:59;98885.33;;;18.83;16.53
69689;BME280;56932;38.402;-96.176;2023-02-11T09:33:25;98880.28;;;18.94;16.65
69689;BME280;56932;38.402;-96.176;2023-02-11T09:35:50;98870.04;;;18.74;16.78
69689;BME280;56932;38.402;-96.176;2023-02-11T09:38:15;98867.31;;;18.60;16.92
69689;BME280;56932;38.402;-96.176;2023-02-11T09:40:42;98870.22;;;18.34;17.15
69689;BME280;56932;38.402;-96.176;2023-02-11T09:43:09;98873.46;;;17.14;18.28
69689;BME280;56932;38.402;-96.176;2023-02-11T09:45:32;98866.27;;;16.55;18.64
69689;BME280;56932;38.402;-96.176;2023-02-11T09:48:01;98864.72;;;17.03;18.74
69689;BME280;56932;38.402;-96.176;2023-02-11T09:50:29;98865.66;;;17.57;18.42
69689;BME280;56932;38.402;-96.176;2023-02-11T09:52:53;98864.03;;;17.47;18.41
69689;BME280;56932;38.402;-96.176;2023-02-11T09:55:21;98863.05;;;17.53;18.60
69689;BME280;56932;38.402;-96.176;2023-02-11T09:57:39;98860.18;;;17.39;18.55
69689;BME280;56932;38.402;-96.176;2023-02-11T10:00:16;98860.99;;;17.94;18.25
69689;BME280;56932;38.402;-96.176;2023-02-11T10:02:35;98858.19;;;17.01;18.31
69689;BME280;56932;38.402;-96.176;2023-02-11T10:05:12;98857.68;;;17.93;18.21
69689;BME280;56932;38.402;-96.176;2023-02-11T10:07:26;98852.31;;;18.60;17.98
69689;BME280;56932;38.402;-96.176;2023-02-11T10:09:59;98848.60;;;18.29;18.04
69689;BME280;56932;38.402;-96.176;2023-02-11T10:12:23;98848.34;;;18.68;17.66
69689;BME280;56932;38.402;-96.176;2023-02-11T10:14:48;98848.22;;;18.56;17.78
69689;BME280;56932;38.402;-96.176;2023-02-11T10:17:09;98847.94;;;18.80;17.66
69689;BME280;56932;38.402;-96.176;2023-02-11T10:19:39;98849.18;;;18.61;17.38
69689;BME280;56932;38.402;-96.176;2023-02-11T10:22:02;98847.50;;;18.67;17.84
69689;BME280;56932;38.402;-96.176;2023-02-11T10:24:21;98849.24;;;19.40;17.41
69689;BME280;56932;38.402;-96.176;2023-02-11T10:26:46;98846.73;;;19.09;17.65
69689;BME280;56932;38.402;-96.176;2023-02-11T10:29:20;98847.90;;;19.11;17.69
69689;BME280;56932;38.402;-96.176;2023-02-11T10:31:40;98846.95;;;18.76;17.66
69689;BME280;56932;38.402;-96.176;2023-02-11T10:34:05;98847.40;;;19.24;17.64
69689;BME280;56932;38.402;-96.176;2023-02-11T10:36:30;98848.91;;;18.37;17.63
69689;BME280;56932;38.402;-96.176;2023-02-11T10:38:53;98850.25;;;19.29;17.40
69689;BME280;56932;38.402;-96.176;2023-02-11T10:41:21;98844.78;;;19.11;17.65
69689;BME280;56932;38.402;-96.176;2023-02-11T10:43:44;98845.67;;;18.94;17.94
69689;BME280;56932;38.402;-96.176;2023-02-11T10:46:15;98844.45;;;18.89;17.99
69689;BME280;56932;38.402;-96.176;2023-02-11T10:48:38;98848.21;;;18.03;18.32
69689;BME280;56932;38.402;-96.176;2023-02-11T10:51:11;98850.78;;;18.45;18.19
69689;BME280;56932;38.402;-96.176;2023-02-11T10:53:27;98850.38;;;18.47;18.03
69689;BME280;56932;38.402;-96.176;2023-02-11T10:55:54;98848.80;;;18.28;18.19
69689;BME280;56932;38.402;-96.176;2023-02-11T10:58:24;98843.20;;;19.30;17.82
69689;BME280;56932;38.402;-96.176;2023-02-11T11:00:43;98845.52;;;18.68;18.08
69689;BME280;56932;38.402;-96.176;2023-02-11T11:03:16;98841.54;;;18.79;18.16
69689;BME280;56932;38.402;-96.176;2023-02-11T11:05:36;98839.70;;;18.54;18.33
69689;BME280;56932;38.402;-96.176;2023-02-11T11:08:03;98836.10;;;18.87;17.97
69689;BME280;56932;38.402;-96.176;2023-02-11T11:10:29;98837.77;;;18.71;17.72
69689;BME280;56932;38.402;-96.176;2023-02-11T11:12:51;98835.62;;;18.74;18.18
69689;BME280;56932;38.402;-96.176;2023-02-11T11:15:19;98832.18;;;18.58;17.95
69689;BME280;56932;38.402;-96.176;2023-02-11T11:17:42;98832.75;;;18.74;17.81
69689;BME280;56932;38.402;-96.176;2023-02-11T11:20:15;98832.80;;;19.19;17.48
69689;BME280;56932;38.402;-96.176;2023-02-11T11:22:33;98826.98;;;18.92;17.46
69689;BME280;56932;38.402;-96.176;2023-02-11T11:24:59;98822.37;;;19.14;17.45
69689;BME280;56932;38.402;-96.176;2023-02-11T11:27:25;98827.70;;;19.54;17.34
69689;BME280;56932;38.402;-96.176;2023-02-11T11:29:52;98828.70;;;18.81;17.63
69689;BME280;56932;38.402;-96.176;2023-02-11T11:32:19;98830.71;;;19.53;17.14
69689;BME280;56932;38.402;-96.176;2023-02-11T11:34:42;98832.69;;;20.10;16.57
69689;BME280;56932;38.402;-96.176;2023-02-11T11:37:11;98828.75;;;20.08;16.52
69689;BME280;56932;38.402;-96.176;2023-02-11T11:39:34;98830.59;;;19.84;16.36
69689;BME280;56932;38.402;-96.176;2023-02-11T11:41:59;98830.15;;;19.63;16.72
69689;BME280;56932;38.402;-96.176;2023-02-11T11:44:27;98834.05;;;19.95;16.45
69689;BME280;56932;38.402;-96.176;2023-02-11T11:46:51;98836.29;;;19.93;16.41
69689;BME280;56932;38.402;-96.176;2023-02-11T11:49:22;98834.24;;;20.18;16.13
69689;BME280;56932;38.402;-96.176;2023-02-11T11:51:42;98830.99;;;18.76;17.09
69689;BME280;56932;38.402;-96.176;2023-02-11T11:54:10;98834.67;;;20.22;16.18
69689;BME280;56932;38.402;-96.176;2023-02-11T11:56:33;98836.17;;;19.87;15.96
69689;BME280;56932;38.402;-96.176;2023-02-11T11:58:56;98837.24;;;19.52;16.54
69689;BME280;56932;38.402;-96.176;2023-02-11T12:01:29;98835.27;;;20.99;15.81
69689;BME280;56932;38.402;-96.176;2023-02-11T12:04:01;98835.87;;;20.35;15.96
69689;BME280;56932;38.402;-96.176;2023-02-11T12:06:24;98831.14;;;20.06;16.08
69689;BME280;56932;38.402;-96.176;2023-02-11T12:08:45;98827.59;;;20.04;16.08
69689;BME280;56932;38.402;-96.176;2023-02-11T12:11:10;98828.01;;;20.47;15.66
69689;BME280;56932;38.402;-96.176;2023-02-11T12:13:44;98826.93;;;19.83;15.72
69689;BME280;56932;38.402;-96.176;2023-02-11T12:16:01;98826.20;;;19.99;15.99
69689;BME280;56932;38.402;-96.176;2023-02-11T12:18:35;98824.40;;;20.24;15.81
69689;BME280;56932;38.402;-96.176;2023-02-11T12:20:58;98820.67;;;20.70;15.52
69689;BME280;56932;38.402;-96.176;2023-02-11T12:23:25;98822.91;;;20.48;15.76
69689;BME280;56932;38.402;-96.176;2023-02-11T12:25:44;98821.84;;;20.02;15.86
69689;BME280;56932;38.402;-96.176;2023-02-11T12:28:15;98819.90;;;20.61;15.63
69689;BME280;56932;38.402;-96.176;2023-02-11T12:30:43;98820.90;;;19.86;15.60
69689;BME280;56932;38.402;-96.176;2023-02-11T12:33:00;98815.21;;;20.59;15.59
69689;BME280;56932;38.402;-96.176;2023-02-11T12:35:27;98811.25;;;20.45;15.46
69689;BME280;56932;38.402;-96.176;2023-02-11T12:40:16;98816.52;;;20.79;15.40
69689;BME280;56932;38.402;-96.176;2023-02-11T12:45:15;98823.12;;;20.17;15.69